Time;durP1;ratioP1;P1;durP2;ratioP2;P2;SDS_P1;SDS_P2;PMS_P1;PMS_P2;Temp;Humidity;BMP_temperature;BMP_pressure;BME280_temperature;BME280_humidity;BME280_pressure;Samples;Min_cycle;Max_cycle;Signal;HPM_P1;HPM_P2
2021/08/23 00:00:17;;;;;;;5.85;4.60;;;;;;;;;;5025930;28;20076;-83
2021/08/23 00:03:02;;;;;;;5.88;4.45;;;;;;;;;;5039694;28;20067;-85
2021/08/23 00:05:47;;;;;;;5.65;4.80;;;;;;;;;;5028432;28;20091;-84
2021/08/23 00:08:32;;;;;;;5.68;4.25;;;;;;;;;;5042261;28;20067;-84
2021/08/23 00:11:17;;;;;;;6.13;4.57;;;;;;;;;;5042350;28;20053;-84
2021/08/23 00:14:01;;;;;;;6.10;4.80;;;;;;;;;;5042366;28;20441;-84
2021/08/23 00:16:46;;;;;;;6.85;4.57;;;;;;;;;;5029425;28;20076;-84
2021/08/23 00:19:31;;;;;;;5.35;4.80;;;;;;;;;;5028171;28;20509;-84
2021/08/23 00:25:07;;;;;;;4.95;4.25;;;;;;;;;;5029146;28;20544;-85
2021/08/23 00:27:52;;;;;;;6.10;4.55;;;;;;;;;;5042059;28;20509;-84
2021/08/23 00:30:37;;;;;;;5.88;4.45;;;;;;;;;;5029034;28;20048;-85
2021/08/23 00:33:22;;;;;;;6.15;4.60;;;;;;;;;;5042049;28;20084;-85
2021/08/23 00:36:06;;;;;;;6.57;4.60;;;;;;;;;;5027753;28;20041;-84
2021/08/23 00:38:51;;;;;;;6.30;4.43;;;;;;;;;;5041775;28;20087;-85
2021/08/23 00:41:36;;;;;;;6.35;4.65;;;;;;;;;;5042019;28;20048;-84
2021/08/23 00:44:20;;;;;;;5.43;4.38;;;;;;;;;;5055973;28;20130;-85
2021/08/23 00:47:08;;;;;;;5.82;4.22;;;;;;;;;;5041663;28;20048;-84
2021/08/23 00:49:52;;;;;;;7.97;4.93;;;;;;;;;;5028959;28;20132;-85
2021/08/23 00:52:37;;;;;;;6.07;4.72;;;;;;;;;;5041540;28;20116;-85
2021/08/23 00:55:21;;;;;;;7.00;4.78;;;;;;;;;;5041488;28;20036;-84
2021/08/23 00:58:06;;;;;;;6.47;5.03;;;;;;;;;;5028868;28;20079;-84
2021/08/23 01:00:55;;;;;;;5.95;4.53;;;;;;;;;;5028552;28;20049;-84
2021/08/23 01:03:59;;;;;;;6.30;4.50;;;;;;;;;;5041129;28;20044;-84
2021/08/23 01:06:43;;;;;;;6.07;4.55;;;;;;;;;;5028461;28;20052;-84
2021/08/23 01:09:28;;;;;;;5.57;4.50;;;;;;;;;;5041374;28;20063;-85
2021/08/23 01:12:12;;;;;;;5.57;4.75;;;;;;;;;;5055991;28;20103;-85
2021/08/23 01:14:58;;;;;;;5.55;4.15;;;;;;;;;;5027879;28;20099;-85
2021/08/23 01:17:43;;;;;;;6.68;4.35;;;;;;;;;;5041251;28;20044;-86
2021/08/23 01:20:27;;;;;;;5.55;4.43;;;;;;;;;;5041363;28;20044;-85
2021/08/23 01:23:12;;;;;;;5.90;4.32;;;;;;;;;;5040785;28;20095;-85
2021/08/23 01:25:56;;;;;;;6.18;4.50;;;;;;;;;;5041015;28;20536;-85
2021/08/23 01:28:42;;;;;;;5.78;4.70;;;;;;;;;;5028181;28;20565;-85
2021/08/23 01:31:30;;;;;;;6.88;4.75;;;;;;;;;;5026845;28;20056;-86
2021/08/23 01:34:14;;;;;;;8.50;4.75;;;;;;;;;;5054932;28;20075;-85
2021/08/23 01:37:01;;;;;;;5.82;4.53;;;;;;;;;;5045929;28;20184;-84
2021/08/23 01:39:45;;;;;;;6.93;4.57;;;;;;;;;;5046486;28;20060;-84
2021/08/23 01:42:31;;;;;;;6.05;4.80;;;;;;;;;;5046620;28;20055;-78
2021/08/23 01:45:15;;;;;;;5.53;4.50;;;;;;;;;;5046159;28;20086;-84
2021/08/23 01:48:00;;;;;;;6.50;4.20;;;;;;;;;;5049855;28;20036;-84
2021/08/23 01:50:44;;;;;;;6.35;4.43;;;;;;;;;;5048850;28;20091;-85
2021/08/23 01:53:29;;;;;;;5.30;4.50;;;;;;;;;;5049777;28;20428;-84
2021/08/23 01:56:13;;;;;;;4.85;4.10;;;;;;;;;;5049862;28;20110;-84
2021/08/23 01:59:01;;;;;;;5.22;3.85;;;;;;;;;;5049868;28;20501;-84
2021/08/23 02:01:46;;;;;;;7.30;4.15;;;;;;;;;;5048595;28;20101;-85
2021/08/23 02:04:31;;;;;;;6.10;4.57;;;;;;;;;;5048490;28;20056;-85
2021/08/23 02:07:15;;;;;;;7.55;4.28;;;;;;;;;;5049641;28;20098;-85
2021/08/23 02:10:00;;;;;;;4.95;4.13;;;;;;;;;;5049695;28;20091;-85
2021/08/23 02:12:44;;;;;;;5.75;4.25;;;;;;;;;;5049556;28;20058;-85
2021/08/23 02:15:28;;;;;;;5.50;4.20;;;;;;;;;;5049530;28;20176;-84
2021/08/23 02:18:13;;;;;;;7.07;4.47;;;;;;;;;;5049377;28;20496;-84
2021/08/23 02:20:58;;;;;;;5.60;4.38;;;;;;;;;;5049335;28;20094;-85
2021/08/23 02:23:42;;;;;;;5.45;4.18;;;;;;;;;;5049240;28;20055;-85
2021/08/23 02:26:27;;;;;;;5.70;4.68;;;;;;;;;;5048557;28;20051;-84
2021/08/23 02:29:12;;;;;;;5.82;4.07;;;;;;;;;;5049317;28;20064;-84
2021/08/23 02:31:57;;;;;;;5.75;4.70;;;;;;;;;;5049221;28;20091;-84
2021/08/23 02:34:41;;;;;;;6.90;4.30;;;;;;;;;;5049100;28;20098;-84
2021/08/23 02:37:26;;;;;;;6.38;4.03;;;;;;;;;;5048985;28;20070;-85
2021/08/23 02:40:11;;;;;;;5.85;4.72;;;;;;;;;;5049095;28;20153;-85
2021/08/23 02:42:55;;;;;;;5.88;4.45;;;;;;;;;;5047847;28;20043;-85
2021/08/23 02:45:40;;;;;;;5.97;4.40;;;;;;;;;;5049082;28;20079;-85
2021/08/23 02:48:24;;;;;;;5.35;4.05;;;;;;;;;;5047834;28;20497;-84
2021/08/23 02:51:09;;;;;;;5.07;4.00;;;;;;;;;;5048943;28;20090;-84
2021/08/23 02:53:54;;;;;;;5.63;4.30;;;;;;;;;;5048824;28;20185;-84
2021/08/23 02:56:38;;;;;;;6.15;4.43;;;;;;;;;;5048833;28;20501;-85
2021/08/23 02:59:23;;;;;;;6.43;4.45;;;;;;;;;;5048768;28;20044;-85
2021/08/23 03:02:07;;;;;;;6.18;4.50;;;;;;;;;;5048766;28;20505;-85
2021/08/23 03:04:52;;;;;;;5.93;4.25;;;;;;;;;;5048829;28;20101;-85
2021/08/23 03:07:37;;;;;;;6.00;4.38;;;;;;;;;;5047634;28;20047;-85
2021/08/23 03:10:22;;;;;;;6.47;4.35;;;;;;;;;;5047242;28;20488;-85
2021/08/23 03:13:06;;;;;;;6.22;4.32;;;;;;;;;;5047472;28;20039;-85
2021/08/23 03:15:51;;;;;;;6.82;4.20;;;;;;;;;;5047612;28;20044;-85
2021/08/23 03:18:35;;;;;;;5.70;4.10;;;;;;;;;;5048687;28;20096;-84
2021/08/23 03:21:20;;;;;;;6.32;4.28;;;;;;;;;;5048557;28;20047;-85
2021/08/23 03:24:04;;;;;;;8.30;4.20;;;;;;;;;;5048360;28;20171;-84
2021/08/23 03:26:49;;;;;;;5.20;3.97;;;;;;;;;;5047506;28;20107;-85
2021/08/23 03:29:34;;;;;;;6.45;4.00;;;;;;;;;;5048438;28;20090;-84
2021/08/23 03:32:18;;;;;;;6.10;4.07;;;;;;;;;;5048470;28;20040;-85
2021/08/23 03:35:04;;;;;;;5.45;4.20;;;;;;;;;;5048536;28;20082;-84
2021/08/23 03:37:49;;;;;;;6.05;4.22;;;;;;;;;;5049992;28;20040;-84
2021/08/23 03:40:34;;;;;;;6.03;4.05;;;;;;;;;;5052397;28;20044;-85
2021/08/23 03:43:18;;;;;;;5.50;4.03;;;;;;;;;;5052296;28;20036;-85
2021/08/23 03:46:04;;;;;;;5.70;3.80;;;;;;;;;;5051820;28;20383;-85
2021/08/23 03:48:49;;;;;;;5.75;3.83;;;;;;;;;;5052328;28;20055;-85
2021/08/23 03:51:33;;;;;;;5.43;4.45;;;;;;;;;;5052220;28;20044;-85
2021/08/23 03:54:18;;;;;;;5.15;3.83;;;;;;;;;;5052164;28;20418;-85
2021/08/23 03:57:03;;;;;;;5.28;4.03;;;;;;;;;;5052172;28;20207;-85
2021/08/23 03:59:48;;;;;;;5.45;3.85;;;;;;;;;;5052156;28;20044;-85
2021/08/23 04:02:33;;;;;;;6.38;4.65;;;;;;;;;;5050988;28;20084;-85
2021/08/23 04:05:17;;;;;;;5.68;3.78;;;;;;;;;;5050902;28;20170;-85
2021/08/23 04:08:02;;;;;;;5.70;4.00;;;;;;;;;;5051048;28;20072;-85
2021/08/23 04:10:50;;;;;;;6.65;4.45;;;;;;;;;;5052698;28;20047;-85
2021/08/23 04:13:34;;;;;;;7.65;4.63;;;;;;;;;;5051778;28;20485;-85
2021/08/23 04:16:19;;;;;;;5.88;4.47;;;;;;;;;;5051721;28;20044;-85
2021/08/23 04:19:03;;;;;;;6.65;3.90;;;;;;;;;;5051763;28;20036;-85
2021/08/23 04:21:48;;;;;;;6.10;4.38;;;;;;;;;;5051501;28;20105;-84
2021/08/23 04:24:32;;;;;;;6.95;4.20;;;;;;;;;;5051654;28;20052;-85
2021/08/23 04:27:17;;;;;;;7.80;4.30;;;;;;;;;;5051670;28;20064;-84
2021/08/23 04:30:02;;;;;;;4.70;3.83;;;;;;;;;;5051477;28;20132;-84
2021/08/23 04:32:46;;;;;;;5.13;3.97;;;;;;;;;;5051376;28;20138;-84
2021/08/23 04:35:31;;;;;;;7.55;4.20;;;;;;;;;;5051488;28;20094;-85
2021/08/23 04:38:15;;;;;;;5.97;4.10;;;;;;;;;;5051278;28;20040;-85
2021/08/23 04:41:00;;;;;;;6.60;4.63;;;;;;;;;;5050232;28;20098;-85
2021/08/23 04:43:44;;;;;;;4.57;3.85;;;;;;;;;;5050079;28;20099;-85
2021/08/23 04:46:29;;;;;;;6.65;4.13;;;;;;;;;;5051284;28;20508;-85
2021/08/23 04:49:14;;;;;;;5.63;4.10;;;;;;;;;;5048322;28;20090;-85
2021/08/23 04:51:58;;;;;;;6.68;4.10;;;;;;;;;;5048660;28;20044;-85
2021/08/23 04:54:43;;;;;;;5.50;3.75;;;;;;;;;;5048768;28;20043;-85
2021/08/23 04:57:27;;;;;;;5.95;4.20;;;;;;;;;;5048599;28;20051;-85
2021/08/23 05:00:12;;;;;;;5.97;3.95;;;;;;;;;;5047377;28;20409;-84
2021/08/23 05:02:57;;;;;;;6.53;3.72;;;;;;;;;;5047350;28;20505;-85
2021/08/23 05:05:42;;;;;;;5.60;4.60;;;;;;;;;;5048448;28;20423;-85
2021/08/23 05:08:26;;;;;;;7.00;4.10;;;;;;;;;;5033311;28;20039;-85
2021/08/23 05:11:11;;;;;;;6.00;3.85;;;;;;;;;;5047112;28;20097;-85
2021/08/23 05:13:55;;;;;;;5.70;4.30;;;;;;;;;;5047110;28;20048;-85
2021/08/23 05:16:40;;;;;;;5.82;4.35;;;;;;;;;;5047233;28;20481;-85
2021/08/23 05:19:24;;;;;;;7.70;4.28;;;;;;;;;;5048077;28;20086;-85
2021/08/23 05:22:09;;;;;;;5.55;3.90;;;;;;;;;;5047948;28;20044;-85
2021/08/23 05:24:54;;;;;;;5.30;4.15;;;;;;;;;;5047869;28;20051;-83
2021/08/23 05:27:38;;;;;;;5.80;3.92;;;;;;;;;;5046909;28;20040;-84
2021/08/23 05:30:23;;;;;;;5.63;4.35;;;;;;;;;;5046465;28;20154;-84
2021/08/23 05:33:08;;;;;;;7.07;4.53;;;;;;;;;;5046903;28;20082;-85
2021/08/23 05:35:52;;;;;;;6.35;4.57;;;;;;;;;;5046448;28;20040;-85
2021/08/23 05:38:37;;;;;;;6.07;3.95;;;;;;;;;;5032610;28;20064;-85
2021/08/23 05:41:21;;;;;;;6.85;4.10;;;;;;;;;;5032703;28;20846;-81
2021/08/23 05:44:06;;;;;;;6.57;4.30;;;;;;;;;;5046281;28;20089;-79
2021/08/23 05:46:50;;;;;;;5.78;4.03;;;;;;;;;;5047179;28;20069;-84
2021/08/23 05:49:35;;;;;;;6.22;4.32;;;;;;;;;;5047589;28;20077;-84
2021/08/23 05:52:19;;;;;;;7.30;4.22;;;;;;;;;;5047554;28;20094;-85
2021/08/23 05:55:04;;;;;;;6.05;4.28;;;;;;;;;;5047452;28;20091;-83
2021/08/23 05:57:49;;;;;;;6.05;4.78;;;;;;;;;;5046208;28;20409;-84
2021/08/23 06:00:33;;;;;;;6.13;4.28;;;;;;;;;;5045106;28;20051;-84
2021/08/23 06:03:18;;;;;;;5.85;3.95;;;;;;;;;;5032129;28;20089;-85
2021/08/23 06:06:06;;;;;;;5.90;3.95;;;;;;;;;;5032084;28;20107;-84
2021/08/23 06:08:50;;;;;;;7.20;4.28;;;;;;;;;;5046098;28;20123;-85
2021/08/23 06:11:35;;;;;;;6.28;3.97;;;;;;;;;;5045915;28;20091;-84
2021/08/23 06:14:20;;;;;;;5.63;3.97;;;;;;;;;;5046826;28;20071;-85
2021/08/23 06:17:05;;;;;;;5.97;4.38;;;;;;;;;;5045693;28;20068;-85
2021/08/23 06:19:49;;;;;;;6.00;4.35;;;;;;;;;;5031459;28;20044;-85
2021/08/23 06:22:36;;;;;;;7.00;4.30;;;;;;;;;;5046610;28;20052;-84
2021/08/23 06:25:21;;;;;;;5.97;3.97;;;;;;;;;;5045260;28;20063;-85
2021/08/23 06:28:07;;;;;;;6.15;4.40;;;;;;;;;;5046501;28;20778;-85
2021/08/23 06:30:52;;;;;;;7.30;4.32;;;;;;;;;;5031629;28;20127;-85
2021/08/23 06:33:36;;;;;;;6.25;4.55;;;;;;;;;;5031357;28;20040;-85
2021/08/23 06:36:21;;;;;;;6.72;4.38;;;;;;;;;;5031172;28;20530;-84
2021/08/23 06:39:05;;;;;;;5.65;3.97;;;;;;;;;;5044994;28;20453;-85
2021/08/23 06:41:50;;;;;;;5.90;4.45;;;;;;;;;;5031205;28;20106;-85
2021/08/23 06:44:35;;;;;;;6.00;4.18;;;;;;;;;;5045096;28;20799;-85
2021/08/23 06:47:20;;;;;;;6.45;4.55;;;;;;;;;;5045190;28;20378;-85
2021/08/23 06:50:05;;;;;;;6.20;4.63;;;;;;;;;;5045210;28;20059;-84
2021/08/23 06:52:50;;;;;;;8.30;4.75;;;;;;;;;;5044998;28;20497;-85
2021/08/23 06:55:35;;;;;;;6.35;4.65;;;;;;;;;;5045068;28;20043;-84
2021/08/23 06:58:20;;;;;;;6.28;4.47;;;;;;;;;;5045015;28;20124;-85
2021/08/23 07:01:04;;;;;;;6.43;4.53;;;;;;;;;;5044982;28;20782;-85
2021/08/23 07:03:48;;;;;;;6.90;4.55;;;;;;;;;;5030690;28;20114;-84
2021/08/23 07:06:33;;;;;;;6.70;4.63;;;;;;;;;;5044699;28;20142;-83
2021/08/23 07:09:17;;;;;;;8.65;5.22;;;;;;;;;;5044860;28;20040;-85
2021/08/23 07:12:02;;;;;;;7.68;5.20;;;;;;;;;;5044984;28;20043;-84
2021/08/23 07:14:46;;;;;;;8.27;4.95;;;;;;;;;;5044931;28;20072;-84
2021/08/23 07:17:31;;;;;;;6.45;4.82;;;;;;;;;;5030991;28;20092;-84
2021/08/23 07:20:15;;;;;;;6.20;4.35;;;;;;;;;;5044629;28;20402;-85
2021/08/23 07:23:00;;;;;;;6.93;4.55;;;;;;;;;;5044662;28;20170;-84
2021/08/23 07:25:45;;;;;;;6.80;4.47;;;;;;;;;;5030660;28;20051;-84
2021/08/23 07:28:29;;;;;;;6.80;4.57;;;;;;;;;;5045950;28;20154;-84
2021/08/23 07:31:15;;;;;;;6.35;4.40;;;;;;;;;;5044443;28;20072;-85
2021/08/23 07:34:00;;;;;;;6.40;4.45;;;;;;;;;;5044628;28;20509;-85
2021/08/23 07:36:44;;;;;;;9.27;5.20;;;;;;;;;;5030663;28;20063;-84
2021/08/23 07:39:29;;;;;;;8.75;5.28;;;;;;;;;;5046013;28;20099;-83
2021/08/23 07:42:14;;;;;;;6.10;4.25;;;;;;;;;;5045285;28;20040;-85
2021/08/23 07:44:58;;;;;;;7.53;4.65;;;;;;;;;;5044832;28;20565;-84
2021/08/23 07:47:44;;;;;;;6.60;4.82;;;;;;;;;;5045804;28;20114;-80
2021/08/23 07:50:29;;;;;;;7.50;4.90;;;;;;;;;;5046159;28;20452;-84
2021/08/23 07:53:13;;;;;;;6.50;4.60;;;;;;;;;;5044717;28;20110;-84
2021/08/23 07:55:57;;;;;;;6.55;4.47;;;;;;;;;;5044536;28;20040;-84
2021/08/23 07:58:42;;;;;;;6.80;4.85;;;;;;;;;;5044773;28;20052;-84
2021/08/23 08:01:27;;;;;;;6.38;4.13;;;;;;;;;;5045699;28;20151;-83
2021/08/23 08:04:13;;;;;;;7.47;4.38;;;;;;;;;;5045768;28;20051;-83
2021/08/23 08:06:57;;;;;;;5.90;4.22;;;;;;;;;;5044553;28;20039;-83
2021/08/23 08:09:42;;;;;;;7.80;4.18;;;;;;;;;;5045686;28;20501;-83
2021/08/23 08:12:26;;;;;;;5.63;4.30;;;;;;;;;;5030331;28;20141;-84
2021/08/23 08:15:12;;;;;;;5.95;4.05;;;;;;;;;;5044540;28;20086;-84
2021/08/23 08:17:56;;;;;;;5.50;4.07;;;;;;;;;;5045503;28;20426;-82
2021/08/23 08:20:41;;;;;;;5.20;3.58;;;;;;;;;;5045691;28;20529;-84
2021/08/23 08:23:26;;;;;;;5.45;4.00;;;;;;;;;;5044736;28;20144;-83
2021/08/23 08:26:10;;;;;;;5.38;3.85;;;;;;;;;;5049112;28;20048;-83
2021/08/23 08:28:55;;;;;;;6.40;3.90;;;;;;;;;;5049134;28;20121;-83
2021/08/23 08:31:39;;;;;;;5.38;3.83;;;;;;;;;;5049275;28;20102;-84
2021/08/23 08:34:24;;;;;;;6.10;4.05;;;;;;;;;;5048940;28;20086;-84
2021/08/23 08:37:08;;;;;;;4.90;3.85;;;;;;;;;;5047902;28;20043;-84
2021/08/23 08:39:53;;;;;;;5.30;3.80;;;;;;;;;;5048988;28;20043;-84
2021/08/23 08:42:39;;;;;;;5.28;3.88;;;;;;;;;;5033738;28;20092;-82
2021/08/23 08:45:26;;;;;;;5.43;3.75;;;;;;;;;;5048962;28;20106;-84
2021/08/23 08:48:11;;;;;;;5.60;3.72;;;;;;;;;;5048975;28;20095;-83
2021/08/23 08:50:55;;;;;;;6.30;4.00;;;;;;;;;;5047582;28;20048;-85
2021/08/23 08:53:40;;;;;;;5.30;3.45;;;;;;;;;;5047605;28;20178;-85
2021/08/23 08:56:25;;;;;;;5.05;3.90;;;;;;;;;;5048886;28;20039;-84
2021/08/23 08:59:09;;;;;;;5.40;3.83;;;;;;;;;;5048570;28;20118;-84
2021/08/23 09:01:54;;;;;;;4.90;3.65;;;;;;;;;;5048353;28;20040;-85
2021/08/23 09:04:39;;;;;;;4.03;3.40;;;;;;;;;;5048554;28;20055;-78
2021/08/23 09:07:23;;;;;;;5.32;3.55;;;;;;;;;;5047337;28;20567;-85
2021/08/23 09:10:18;;;;;;;4.80;3.50;;;;;;;;;;5048441;28;20410;-85
2021/08/23 09:13:03;;;;;;;4.70;3.45;;;;;;;;;;5047458;28;20162;-85
2021/08/23 09:15:52;;;;;;;4.22;3.40;;;;;;;;;;5048314;28;20036;-85
2021/08/23 09:18:37;;;;;;;4.47;3.40;;;;;;;;;;5033473;28;20563;-85
2021/08/23 09:21:38;;;;;;;4.00;3.53;;;;;;;;;;5048368;28;20672;-86
2021/08/23 09:24:23;;;;;;;;;;;;;;;;;;5047583;28;20055;-82
2021/08/23 09:27:12;;;;;;;3.92;3.10;;;;;;;;;;5048322;28;19919;-85
2021/08/23 09:30:00;;;;;;;4.95;3.55;;;;;;;;;;5048065;28;20098;-84
2021/08/23 09:32:50;;;;;;;3.97;3.22;;;;;;;;;;5047003;28;20545;-85
2021/08/23 09:35:35;;;;;;;5.05;3.70;;;;;;;;;;5046916;28;20039;-80
2021/08/23 09:38:20;;;;;;;4.43;3.50;;;;;;;;;;5047019;28;20043;-85
2021/08/23 09:41:05;;;;;;;4.38;3.08;;;;;;;;;;5032367;28;20393;-86
2021/08/23 09:43:58;;;;;;;4.30;3.38;;;;;;;;;;5048169;28;20048;-84
2021/08/23 09:46:43;;;;;;;4.38;3.50;;;;;;;;;;5032930;28;20497;-84
2021/08/23 09:49:33;;;;;;;4.78;3.42;;;;;;;;;;5046680;28;20557;-85
2021/08/23 09:52:28;;;;;;;3.97;3.20;;;;;;;;;;5046946;28;20040;-86
2021/08/23 09:55:13;;;;;;;4.10;3.10;;;;;;;;;;5033070;28;20035;-84
2021/08/23 09:57:57;;;;;;;4.05;3.15;;;;;;;;;;5046446;28;20039;-84
2021/08/23 10:00:43;;;;;;;3.50;3.15;;;;;;;;;;5046707;28;20516;-85
2021/08/23 10:03:29;;;;;;;3.92;3.42;;;;;;;;;;5047378;28;20121;-85
2021/08/23 10:06:13;;;;;;;3.80;3.20;;;;;;;;;;5046370;28;20083;-85
2021/08/23 10:08:58;;;;;;;4.32;3.40;;;;;;;;;;5046321;28;20039;-85
2021/08/23 10:11:43;;;;;;;4.10;3.20;;;;;;;;;;5046395;28;20163;-84
2021/08/23 10:14:28;;;;;;;4.47;3.25;;;;;;;;;;5046297;28;20139;-84
2021/08/23 10:17:13;;;;;;;4.30;3.50;;;;;;;;;;5046284;28;20460;-84
2021/08/23 10:19:57;;;;;;;4.03;3.20;;;;;;;;;;5046471;28;20036;-84
2021/08/23 10:22:42;;;;;;;4.00;3.30;;;;;;;;;;5032363;28;20047;-84
2021/08/23 10:25:26;;;;;;;4.20;3.25;;;;;;;;;;5046060;28;20060;-83
2021/08/23 10:28:16;;;;;;;4.13;3.17;;;;;;;;;;5046258;28;20140;-83
2021/08/23 10:31:07;;;;;;;4.13;3.15;;;;;;;;;;5046151;28;20509;-84
2021/08/23 10:33:52;;;;;;;4.15;3.17;;;;;;;;;;5045961;28;20469;-78
2021/08/23 10:36:38;;;;;;;3.92;2.97;;;;;;;;;;5031689;28;20464;-83
2021/08/23 10:39:26;;;;;;;4.28;3.20;;;;;;;;;;5045459;28;20089;-84
2021/08/23 10:42:12;;;;;;;3.78;3.00;;;;;;;;;;5045675;28;20603;-84
2021/08/23 10:44:56;;;;;;;4.15;3.10;;;;;;;;;;5047104;28;20115;-81
2021/08/23 10:47:41;;;;;;;4.05;3.13;;;;;;;;;;5045650;28;20162;-85
2021/08/23 10:50:26;;;;;;;4.47;3.53;;;;;;;;;;5046304;28;20048;-83
2021/08/23 10:53:11;;;;;;;3.20;2.85;;;;;;;;;;5046513;28;20410;-85
2021/08/23 10:55:55;;;;;;;4.10;3.25;;;;;;;;;;5047387;28;20177;-84
2021/08/23 10:58:40;;;;;;;3.88;2.95;;;;;;;;;;5047268;28;20044;-84
2021/08/23 11:01:26;;;;;;;3.90;2.95;;;;;;;;;;5046407;28;20095;-83
2021/08/23 11:04:11;;;;;;;4.57;3.08;;;;;;;;;;5045890;28;20067;-83
2021/08/23 11:06:55;;;;;;;4.55;2.90;;;;;;;;;;5046914;28;20036;-76
2021/08/23 11:09:43;;;;;;;4.03;2.80;;;;;;;;;;5045282;28;20093;-85
2021/08/23 11:12:32;;;;;;;3.25;2.78;;;;;;;;;;5045142;28;20465;-83
2021/08/23 11:15:20;;;;;;;3.78;2.85;;;;;;;;;;5044813;28;20099;-84
2021/08/23 11:18:05;;;;;;;3.90;3.05;;;;;;;;;;5046009;28;20136;-83
2021/08/23 11:20:52;;;;;;;4.07;3.25;;;;;;;;;;5046043;28;20068;-84
2021/08/23 11:23:36;;;;;;;3.17;2.80;;;;;;;;;;5045822;28;20416;-84
2021/08/23 11:26:25;;;;;;;3.70;3.03;;;;;;;;;;5044792;28;20125;-83
2021/08/23 11:29:10;;;;;;;4.03;3.05;;;;;;;;;;5046192;28;20043;-84
2021/08/23 11:31:58;;;;;;;3.78;3.00;;;;;;;;;;5045786;28;20039;-84
2021/08/23 11:34:44;;;;;;;3.53;2.70;;;;;;;;;;5045658;28;20103;-84
2021/08/23 11:37:29;;;;;;;3.50;3.00;;;;;;;;;;5045319;28;20047;-84
2021/08/23 11:40:14;;;;;;;3.75;2.88;;;;;;;;;;5044508;28;20036;-83
2021/08/23 11:42:59;;;;;;;4.10;2.90;;;;;;;;;;5044788;28;20107;-83
2021/08/23 11:45:44;;;;;;;3.65;2.80;;;;;;;;;;5045604;28;20055;-84
2021/08/23 11:48:29;;;;;;;3.97;3.00;;;;;;;;;;5044395;28;20175;-82
2021/08/23 11:51:14;;;;;;;3.42;2.97;;;;;;;;;;5045655;28;20040;-83
2021/08/23 11:53:58;;;;;;;3.33;2.70;;;;;;;;;;5045371;28;20044;-84
2021/08/23 11:56:43;;;;;;;4.18;3.10;;;;;;;;;;5044377;28;20528;-83
2021/08/23 11:59:27;;;;;;;3.42;2.75;;;;;;;;;;5049059;28;20716;-83
2021/08/23 12:02:12;;;;;;;3.70;2.90;;;;;;;;;;5049549;28;20052;-83
2021/08/23 12:05:13;;;;;;;3.45;2.85;;;;;;;;;;5049953;28;20059;-83
2021/08/23 12:07:58;;;;;;;3.95;2.80;;;;;;;;;;5048980;28;20067;-82
2021/08/23 12:10:49;;;;;;;3.60;2.80;;;;;;;;;;5050386;28;20043;-82
2021/08/23 12:13:41;;;;;;;3.72;3.03;;;;;;;;;;5052180;28;20109;-82
2021/08/23 12:16:33;;;;;;;3.03;2.63;;;;;;;;;;5061698;28;20075;-82
2021/08/23 12:19:18;;;;;;;3.63;2.78;;;;;;;;;;5061004;28;20064;-84
2021/08/23 12:22:06;;;;;;;3.03;2.70;;;;;;;;;;5054550;28;20128;-82
2021/08/23 12:24:58;;;;;;;3.20;2.80;;;;;;;;;;5065560;28;20078;-81
2021/08/23 12:27:49;;;;;;;3.63;2.80;;;;;;;;;;5038734;28;20040;-82
2021/08/23 12:30:34;;;;;;;3.50;2.83;;;;;;;;;;5051121;28;20091;-82
2021/08/23 12:33:18;;;;;;;3.50;2.90;;;;;;;;;;5050158;28;20440;-82
2021/08/23 12:36:03;;;;;;;3.55;3.00;;;;;;;;;;5047883;28;20044;-82
2021/08/23 12:38:48;;;;;;;3.30;2.67;;;;;;;;;;5048081;28;20044;-82
2021/08/23 12:41:32;;;;;;;2.80;2.50;;;;;;;;;;5047827;28;20043;-81
2021/08/23 12:44:17;;;;;;;3.05;2.50;;;;;;;;;;5048827;28;20043;-82
2021/08/23 12:47:01;;;;;;;3.50;2.67;;;;;;;;;;5047838;28;20095;-82
2021/08/23 12:49:48;;;;;;;3.50;2.72;;;;;;;;;;5048047;28;20040;-82
2021/08/23 12:52:33;;;;;;;3.97;2.85;;;;;;;;;;5048053;28;20064;-82
2021/08/23 12:55:17;;;;;;;2.88;2.30;;;;;;;;;;5048139;28;20106;-81
2021/08/23 12:58:02;;;;;;;3.50;2.80;;;;;;;;;;5033945;28;20044;-82
2021/08/23 13:00:49;;;;;;;3.08;2.40;;;;;;;;;;5047874;28;20520;-81
2021/08/23 13:03:34;;;;;;;3.38;2.63;;;;;;;;;;5047779;28;20044;-76
2021/08/23 13:06:19;;;;;;;3.13;2.75;;;;;;;;;;5048602;28;20094;-82
2021/08/23 13:09:04;;;;;;;2.97;2.45;;;;;;;;;;5047030;28;20043;-81
2021/08/23 13:11:48;;;;;;;3.03;2.50;;;;;;;;;;5047487;28;20087;-80
2021/08/23 13:14:33;;;;;;;3.42;2.83;;;;;;;;;;5033287;28;20565;-80
2021/08/23 13:17:17;;;;;;;4.00;3.00;;;;;;;;;;5047269;28;20044;-81
2021/08/23 13:20:02;;;;;;;3.13;2.55;;;;;;;;;;5048332;28;20504;-81
2021/08/23 13:22:47;;;;;;;3.20;2.63;;;;;;;;;;5047432;28;20090;-82
2021/08/23 13:25:31;;;;;;;3.05;2.47;;;;;;;;;;5046964;28;20464;-81
2021/08/23 13:28:16;;;;;;;2.97;2.65;;;;;;;;;;5032853;28;20557;-81
2021/08/23 13:31:01;;;;;;;3.22;2.70;;;;;;;;;;5032210;28;20044;-81
2021/08/23 13:33:46;;;;;;;3.03;2.70;;;;;;;;;;5048165;28;20036;-75
2021/08/23 13:36:31;;;;;;;3.13;2.63;;;;;;;;;;5046960;28;20402;-81
2021/08/23 13:39:15;;;;;;;3.17;2.70;;;;;;;;;;5046956;28;20117;-82
2021/08/23 13:41:59;;;;;;;3.00;2.50;;;;;;;;;;5032829;28;20865;-78
2021/08/23 13:44:44;;;;;;;3.15;2.63;;;;;;;;;;5047980;28;20118;-81
2021/08/23 13:47:28;;;;;;;3.58;2.72;;;;;;;;;;5048055;28;20110;-81
2021/08/23 13:50:13;;;;;;;3.08;2.55;;;;;;;;;;5047886;28;20044;-80
2021/08/23 13:52:57;;;;;;;2.65;2.33;;;;;;;;;;5046977;28;20035;-81
2021/08/23 13:55:42;;;;;;;3.28;2.67;;;;;;;;;;5032544;28;20044;-80
2021/08/23 13:58:27;;;;;;;3.10;2.38;;;;;;;;;;5046869;28;20036;-81
2021/08/23 14:01:11;;;;;;;2.92;2.55;;;;;;;;;;5046581;28;20047;-81
2021/08/23 14:03:56;;;;;;;3.15;2.70;;;;;;;;;;5047634;28;20102;-81
2021/08/23 14:06:41;;;;;;;2.95;2.42;;;;;;;;;;5046621;28;20044;-80
2021/08/23 14:09:25;;;;;;;2.80;2.47;;;;;;;;;;5046532;28;20040;-81
2021/08/23 14:12:10;;;;;;;2.92;2.40;;;;;;;;;;5047556;28;20689;-81
2021/08/23 14:14:54;;;;;;;3.55;2.58;;;;;;;;;;5046346;28;20093;-81
2021/08/23 14:17:39;;;;;;;2.80;2.40;;;;;;;;;;5046664;28;20052;-81
2021/08/23 14:20:24;;;;;;;3.30;2.95;;;;;;;;;;5046631;28;20521;-81
2021/08/23 14:23:08;;;;;;;2.72;2.40;;;;;;;;;;5046720;28;20417;-81
2021/08/23 14:25:53;;;;;;;2.90;2.20;;;;;;;;;;5046162;28;20052;-80
2021/08/23 14:28:37;;;;;;;3.28;2.40;;;;;;;;;;5047220;28;20093;-80
2021/08/23 14:31:22;;;;;;;3.08;2.45;;;;;;;;;;5046984;28;20048;-80
2021/08/23 14:34:07;;;;;;;2.33;2.10;;;;;;;;;;5047172;28;20406;-81
2021/08/23 14:36:52;;;;;;;2.80;2.30;;;;;;;;;;5047201;28;20114;-80
2021/08/23 14:39:37;;;;;;;2.55;2.25;;;;;;;;;;5046545;28;20103;-81
2021/08/23 14:42:22;;;;;;;3.25;2.47;;;;;;;;;;5042738;28;20048;-80
2021/08/23 14:45:07;;;;;;;3.13;2.50;;;;;;;;;;5046997;28;20060;-80
2021/08/23 14:47:51;;;;;;;2.53;2.33;;;;;;;;;;5047132;28;20045;-81
2021/08/23 14:50:36;;;;;;;2.83;2.38;;;;;;;;;;5045885;28;20494;-80
2021/08/23 14:53:20;;;;;;;2.65;2.38;;;;;;;;;;5046803;28;20701;-80
2021/08/23 14:56:04;;;;;;;3.05;2.55;;;;;;;;;;5047177;28;20032;-81
2021/08/23 14:58:54;;;;;;;2.70;2.35;;;;;;;;;;5045625;28;20044;-80
2021/08/23 15:01:39;;;;;;;2.95;2.63;;;;;;;;;;5045769;28;20575;-81
2021/08/23 15:04:23;;;;;;;3.30;2.60;;;;;;;;;;5031672;28;20043;-81
2021/08/23 15:07:08;;;;;;;2.70;2.28;;;;;;;;;;5031843;28;20075;-81
2021/08/23 15:09:53;;;;;;;3.30;2.58;;;;;;;;;;5046143;28;20165;-80
2021/08/23 15:12:39;;;;;;;2.90;2.30;;;;;;;;;;5031508;28;20183;-81
2021/08/23 15:15:24;;;;;;;2.92;2.33;;;;;;;;;;5047113;28;20047;-81
2021/08/23 15:18:09;;;;;;;3.17;2.58;;;;;;;;;;5046713;28;20040;-81
2021/08/23 15:20:53;;;;;;;3.22;2.50;;;;;;;;;;5046313;28;20094;-82
2021/08/23 15:23:38;;;;;;;2.50;2.20;;;;;;;;;;5045182;28;20043;-81
2021/08/23 15:26:22;;;;;;;3.40;2.60;;;;;;;;;;5046022;28;20052;-80
2021/08/23 15:29:07;;;;;;;3.22;2.50;;;;;;;;;;5046056;28;20147;-81
2021/08/23 15:31:51;;;;;;;2.75;2.20;;;;;;;;;;5046087;28;20524;-81
2021/08/23 15:34:37;;;;;;;2.60;2.22;;;;;;;;;;5050180;28;20121;-80
2021/08/23 15:37:22;;;;;;;2.97;2.30;;;;;;;;;;5050851;28;20063;-81
2021/08/23 15:40:07;;;;;;;3.03;2.33;;;;;;;;;;5049409;28;20122;-79
2021/08/23 15:42:52;;;;;;;2.50;2.20;;;;;;;;;;5049265;28;20128;-79
2021/08/23 15:45:37;;;;;;;3.13;2.22;;;;;;;;;;5035270;28;20525;-80
2021/08/23 15:48:21;;;;;;;2.95;2.40;;;;;;;;;;5050334;28;20051;-81
2021/08/23 15:51:07;;;;;;;3.10;2.58;;;;;;;;;;5050241;28;20044;-82
2021/08/23 15:53:52;;;;;;;2.70;2.20;;;;;;;;;;5049241;28;20583;-80
2021/08/23 15:56:36;;;;;;;3.15;2.40;;;;;;;;;;5049108;28;20118;-81
2021/08/23 15:59:21;;;;;;;2.75;2.20;;;;;;;;;;5050077;28;20043;-81
2021/08/23 16:02:05;;;;;;;2.97;2.30;;;;;;;;;;5049054;28;20468;-80
2021/08/23 16:04:50;;;;;;;3.53;2.40;;;;;;;;;;5049018;28;20158;-76
2021/08/23 16:07:35;;;;;;;3.55;2.33;;;;;;;;;;5050227;28;20052;-82
2021/08/23 16:10:19;;;;;;;2.80;2.50;;;;;;;;;;5048780;28;20397;-82
2021/08/23 16:13:04;;;;;;;3.13;2.30;;;;;;;;;;5048457;28;20036;-81
2021/08/23 16:15:49;;;;;;;2.90;2.38;;;;;;;;;;5049783;28;20051;-81
2021/08/23 16:18:34;;;;;;;2.80;2.10;;;;;;;;;;5049840;28;20366;-82
2021/08/23 16:21:18;;;;;;;2.97;2.33;;;;;;;;;;5049506;28;20113;-82
2021/08/23 16:24:03;;;;;;;2.72;2.15;;;;;;;;;;5048957;28;20501;-81
2021/08/23 16:26:48;;;;;;;3.75;2.20;;;;;;;;;;5049223;28;20087;-81
2021/08/23 16:29:32;;;;;;;2.80;2.35;;;;;;;;;;5049628;28;20056;-82
2021/08/23 16:32:17;;;;;;;3.22;2.30;;;;;;;;;;5049242;28;20475;-82